Time;durP1;ratioP1;P1;durP2;ratioP2;P2;SDS_P1;SDS_P2;PMS_P1;PMS_P2;Temp;Humidity;BMP_temperature;BMP_pressure;BME280_temperature;BME280_humidity;BME280_pressure;Samples;Min_cycle;Max_cycle;Signal;HPM_P1;HPM_P2
2021/04/09 00:00:57;;;;;;;55.95;23.08;;;;;;;1.12;81.19;98409.16;5014907;28;20064;-82
2021/04/09 00:03:22;;;;;;;52.75;22.95;;;;;;;1.11;81.48;98415.31;5015072;28;20382;-82
2021/04/09 00:05:48;;;;;;;52.85;23.13;;;;;;;1.08;82.33;98424.13;5031445;28;20034;-82
2021/04/09 00:08:13;;;;;;;43.15;21.00;;;;;;;1.07;81.96;98413.63;5014799;28;20033;-81
2021/04/09 00:10:39;;;;;;;53.47;21.90;;;;;;;1.09;80.64;98414.47;5031397;28;20083;-82
2021/04/09 00:13:07;;;;;;;46.05;21.92;;;;;;;1.20;80.14;98423.13;5031308;28;20036;-81
2021/04/09 00:15:33;;;;;;;44.55;19.42;;;;;;;1.24;80.22;98422.19;5031439;28;20030;-82
2021/04/09 00:17:58;;;;;;;29.13;14.27;;;;;;;1.20;78.84;98422.28;5031098;28;20037;-82
2021/04/09 00:20:25;;;;;;;21.52;11.50;;;;;;;1.03;78.35;98401.38;5048029;28;20022;-82
2021/04/09 00:22:51;;;;;;;22.48;11.20;;;;;;;1.16;78.59;98424.06;5019356;28;20037;-82
2021/04/09 00:25:20;;;;;;;20.50;11.07;;;;;;;1.04;79.35;98411.91;5014707;28;20417;-81
2021/04/09 00:27:45;;;;;;;22.95;11.25;;;;;;;1.01;80.32;98421.59;5014763;28;20087;-81
2021/04/09 00:30:24;;;;;;;18.75;9.55;;;;;;;0.93;82.10;98410.22;5031078;28;20033;-82
2021/04/09 00:32:50;;;;;;;20.08;10.57;;;;;;;0.97;83.54;98412.84;5014869;28;20474;-82
2021/04/09 00:35:15;;;;;;;22.95;10.80;;;;;;;1.05;83.61;98407.47;5013517;28;20116;-81
2021/04/09 00:37:42;;;;;;;24.25;10.73;;;;;;;1.11;82.88;98411.84;5020735;28;20035;-82
2021/04/09 00:40:08;;;;;;;22.95;10.77;;;;;;;1.09;83.73;98406.56;5014480;28;20095;-82
2021/04/09 00:42:34;;;;;;;28.02;13.15;;;;;;;1.15;81.47;98421.41;5014456;28;20040;-82
2021/04/09 00:44:59;;;;;;;31.00;15.80;;;;;;;1.13;82.21;98413.56;5014373;28;20464;-82
2021/04/09 00:47:25;;;;;;;39.10;18.13;;;;;;;1.06;81.88;98417.13;5014303;28;20032;-82
2021/04/09 00:49:51;;;;;;;36.88;16.73;;;;;;;1.14;82.25;98423.19;5014377;28;20468;-82
2021/04/09 00:52:17;;;;;;;38.38;17.75;;;;;;;1.19;81.57;98421.38;5015863;28;20033;-81
2021/04/09 00:54:43;;;;;;;39.13;19.77;;;;;;;1.18;81.00;98406.47;5014258;28;20047;-82
2021/04/09 00:57:09;;;;;;;32.20;16.40;;;;;;;1.22;79.50;98413.44;5014199;28;20472;-82
2021/04/09 00:59:35;;;;;;;43.15;18.50;;;;;;;1.13;79.08;98413.56;5030576;28;20049;-82
2021/04/09 01:02:02;;;;;;;44.33;18.65;;;;;;;1.17;79.96;98420.50;5014224;28;20053;-82
2021/04/09 01:04:27;;;;;;;46.05;18.95;;;;;;;1.14;80.51;98417.91;5014226;28;20064;-82
2021/04/09 01:06:53;;;;;;;42.20;20.30;;;;;;;1.24;81.77;98422.19;5014204;28;20513;-82
2021/04/09 01:09:19;;;;;;;39.10;18.83;;;;;;;1.23;80.24;98420.44;5014235;28;20017;-80
2021/04/09 01:11:44;;;;;;;40.13;18.58;;;;;;;1.21;81.12;98418.72;5014063;28;20050;-81
2021/04/09 01:14:10;;;;;;;36.85;18.13;;;;;;;1.26;81.35;98430.09;5014060;28;20029;-82
2021/04/09 01:16:45;;;;;;;30.20;13.80;;;;;;;1.27;80.36;98432.69;5030520;28;20029;-82
2021/04/09 01:19:13;;;;;;;36.35;15.90;;;;;;;1.23;81.01;98441.53;5031395;28;20033;-74
2021/04/09 01:21:48;;;;;;;43.58;18.92;;;;;;;1.13;81.63;98442.53;5031849;28;20408;-83
2021/04/09 01:24:38;;;;;;;52.25;22.88;;;;;;;1.10;82.91;98442.56;5013859;28;20184;-83
2021/04/09 01:27:38;;;;;;;45.05;23.63;;;;;;;1.01;84.35;98427.72;5030434;28;20056;-82
2021/04/09 01:30:09;;;;;;;51.92;22.38;;;;;;;1.06;86.37;98435.56;5030403;28;20471;-82
2021/04/09 01:32:35;;;;;;;45.47;22.15;;;;;;;1.01;85.86;98440.03;5030326;28;20116;-82
2021/04/09 01:35:07;;;;;;;55.38;21.23;;;;;;;1.04;85.90;98445.25;5013859;28;20029;-82
2021/04/09 01:37:41;;;;;;;42.53;20.23;;;;;;;0.88;86.40;98434.00;5030030;28;20559;-83
2021/04/09 01:40:30;;;;;;;44.88;20.45;;;;;;;0.87;87.26;98448.03;5030414;28;20033;-83
2021/04/09 01:42:59;;;;;;;47.47;20.48;;;;;;;0.75;87.17;98437.63;5024921;28;20034;-82
2021/04/09 01:45:25;;;;;;;39.20;20.15;;;;;;;0.67;85.78;98443.84;5013683;28;20033;-83
2021/04/09 01:47:51;;;;;;;36.72;18.27;;;;;;;0.60;85.60;98442.16;5033219;28;20548;-82
2021/04/09 01:50:18;;;;;;;37.00;18.70;;;;;;;0.55;86.09;98437.78;5033803;28;20107;-82
2021/04/09 01:52:44;;;;;;;36.95;18.15;;;;;;;0.56;86.68;98441.28;5051069;28;20109;-82
2021/04/09 01:55:12;;;;;;;38.38;19.52;;;;;;;0.41;86.97;98439.66;5021304;28;20036;-82
2021/04/09 01:57:39;;;;;;;38.08;19.75;;;;;;;0.37;87.49;98440.56;5017182;28;20053;-81
2021/04/09 02:00:06;;;;;;;35.17;18.88;;;;;;;0.35;87.07;98439.72;5034281;28;20040;-82
2021/04/09 02:02:32;;;;;;;41.30;18.73;;;;;;;0.27;88.06;98448.53;5033664;28;20025;-82
2021/04/09 02:05:00;;;;;;;41.83;19.08;;;;;;;0.26;89.15;98445.03;5034003;28;20125;-81
2021/04/09 02:07:26;;;;;;;32.22;17.85;;;;;;;0.01;88.66;98425.03;5017273;28;20036;-82
2021/04/09 02:09:52;;;;;;;31.73;17.27;;;;;;;0.14;91.35;98452.13;5017314;28;20071;-83
2021/04/09 02:12:18;;;;;;;33.40;15.85;;;;;;;-0.02;91.92;98440.84;5016897;28;20049;-82
2021/04/09 02:14:45;;;;;;;30.60;15.95;;;;;;;-0.03;92.34;98449.59;5024898;28;20558;-82
2021/04/09 02:17:11;;;;;;;32.35;16.10;;;;;;;-0.13;92.67;98448.81;5017068;28;20500;-81
2021/04/09 02:19:39;;;;;;;32.80;16.33;;;;;;;-0.16;93.13;98434.78;5016947;28;20052;-82
2021/04/09 02:22:05;;;;;;;38.63;19.58;;;;;;;-0.03;93.13;98461.00;5017095;28;20477;-81
2021/04/09 02:24:31;;;;;;;67.47;27.08;;;;;;;-0.03;93.55;98461.00;5016630;28;20052;-81
2021/04/09 02:26:57;;;;;;;47.67;22.38;;;;;;;-0.09;94.40;98458.41;5023196;28;20501;-83
2021/04/09 02:29:23;;;;;;;53.90;22.63;;;;;;;-0.13;93.27;98445.28;5017040;28;20420;-82
2021/04/09 02:31:49;;;;;;;48.97;22.50;;;;;;;-0.21;93.25;98439.19;5016897;28;20022;-82
2021/04/09 02:34:15;;;;;;;51.63;23.90;;;;;;;-0.10;93.71;98463.69;5033462;28;20041;-82
2021/04/09 02:36:42;;;;;;;52.85;24.02;;;;;;;-0.15;93.97;98468.06;5033444;28;20100;-82
2021/04/09 02:39:11;;;;;;;63.65;27.73;;;;;;;-0.24;94.16;98465.47;5033205;28;20115;-82
2021/04/09 02:41:43;;;;;;;44.13;21.27;;;;;;;-0.25;95.29;98459.38;5016722;28;20044;-82
2021/04/09 02:44:09;;;;;;;41.85;18.45;;;;;;;-0.33;94.65;98476.03;5033376;28;20017;-83
2021/04/09 02:46:58;;;;;;;37.17;15.65;;;;;;;-0.35;94.81;98478.69;5033119;28;20030;-82
2021/04/09 02:49:33;;;;;;;33.83;15.48;;;;;;;-0.41;95.16;98476.09;5032983;28;20121;-82
2021/04/09 02:52:00;;;;;;;37.15;14.85;;;;;;;-0.37;95.34;98488.31;5016771;28;20518;-83
2021/04/09 02:54:26;;;;;;;30.17;15.15;;;;;;;-0.40;96.19;98474.34;5016864;28;20032;-85
2021/04/09 02:56:53;;;;;;;35.05;15.90;;;;;;;-0.36;96.94;98465.53;5016503;28;20029;-82
2021/04/09 02:59:18;;;;;;;36.08;16.60;;;;;;;-0.39;95.71;98470.81;5015532;28;20037;-82
2021/04/09 03:01:45;;;;;;;37.35;15.60;;;;;;;-0.38;95.61;98469.94;5032835;28;20091;-82
2021/04/09 03:04:11;;;;;;;34.00;16.02;;;;;;;-0.46;94.81;98469.09;5016314;28;20037;-81
2021/04/09 03:06:37;;;;;;;36.60;15.93;;;;;;;-0.60;95.73;98456.88;5032670;28;20413;-82
2021/04/09 03:09:06;;;;;;;38.72;16.58;;;;;;;-0.49;96.58;98469.13;5032698;28;20037;-82
2021/04/09 03:11:33;;;;;;;46.38;21.83;;;;;;;-0.47;95.40;98477.84;5018236;28;20073;-81
2021/04/09 03:14:00;;;;;;;47.15;20.67;;;;;;;-0.60;95.72;98467.41;5016323;28;20049;-81
2021/04/09 03:16:26;;;;;;;38.50;18.27;;;;;;;-0.53;93.66;98480.50;5032707;28;20025;-82
2021/04/09 03:18:51;;;;;;;35.53;17.50;;;;;;;-0.64;94.13;98465.66;5024129;28;20409;-82
2021/04/09 03:21:17;;;;;;;38.92;16.80;;;;;;;-0.64;95.95;98472.66;5016204;28;20041;-82
2021/04/09 03:23:43;;;;;;;28.95;15.43;;;;;;;-0.65;96.16;98484.94;5016001;28;20489;-81
2021/04/09 03:26:09;;;;;;;33.45;15.20;;;;;;;-0.62;95.97;98482.28;5016059;28;20477;-82
2021/04/09 03:28:35;;;;;;;31.17;15.50;;;;;;;-0.60;95.74;98488.41;5015829;28;20504;-82
2021/04/09 03:31:00;;;;;;;29.42;14.77;;;;;;;-0.77;96.16;98461.28;5032907;28;20029;-82
2021/04/09 03:33:26;;;;;;;33.65;14.63;;;;;;;-0.71;95.88;98473.56;5016021;28;20094;-80
2021/04/09 03:35:52;;;;;;;28.95;14.05;;;;;;;-0.76;95.74;98464.81;5032269;28;20141;-81
2021/04/09 03:38:18;;;;;;;43.40;14.05;;;;;;;-0.62;95.62;98500.69;5032164;28;20108;-81
2021/04/09 03:40:44;;;;;;;45.45;15.50;;;;;;;-0.68;95.74;98505.91;5015526;28;20485;-81
2021/04/09 03:43:11;;;;;;;31.33;13.80;;;;;;;-0.62;95.63;98511.19;5049405;28;20022;-82
2021/04/09 03:45:37;;;;;;;32.08;15.90;;;;;;;-0.76;96.27;98498.94;5015786;28;20029;-81
2021/04/09 03:48:02;;;;;;;40.70;18.15;;;;;;;-0.78;95.78;98482.31;5049423;28;20099;-82
2021/04/09 03:50:28;;;;;;;28.25;14.95;;;;;;;-0.87;94.19;98467.47;5032624;28;20467;-83
2021/04/09 03:52:54;;;;;;;30.95;14.57;;;;;;;-0.87;93.21;98480.59;5048584;28;20063;-82
2021/04/09 03:55:19;;;;;;;33.67;16.98;;;;;;;-0.68;94.02;98500.66;5015486;28;20504;-81
2021/04/09 03:57:45;;;;;;;36.00;16.83;;;;;;;-0.55;94.40;98501.50;5031827;28;20056;-82
2021/04/09 04:00:11;;;;;;;41.15;18.25;;;;;;;-0.40;93.48;98488.31;5031947;28;20029;-82
2021/04/09 04:02:37;;;;;;;42.95;20.95;;;;;;;-0.13;93.47;98508.38;5048286;28;20116;-81
2021/04/09 04:05:03;;;;;;;88.40;33.22;;;;;;;0.06;92.93;98524.94;5048666;28;20504;-82
2021/04/09 04:07:32;;;;;;;46.30;21.88;;;;;;;0.15;90.93;98522.28;5031478;28;20056;-82
2021/04/09 04:09:57;;;;;;;54.67;22.42;;;;;;;0.33;89.52;98538.84;5031393;28;20050;-82
2021/04/09 04:12:23;;;;;;;59.65;23.00;;;;;;;0.47;89.73;98542.25;5031939;28;20057;-82
2021/04/09 04:14:48;;;;;;;68.18;29.83;;;;;;;0.59;90.38;98545.66;5031431;28;20029;-81
2021/04/09 04:17:14;;;;;;;56.20;22.48;;;;;;;0.64;89.19;98536.00;5015351;28;20033;-82
2021/04/09 04:19:40;;;;;;;51.67;20.13;;;;;;;0.66;88.74;98540.38;5031333;28;20035;-82
2021/04/09 04:22:06;;;;;;;53.70;22.20;;;;;;;0.83;87.28;98556.06;5015024;28;20029;-82
2021/04/09 04:24:31;;;;;;;54.72;22.40;;;;;;;0.90;87.92;98557.72;5048139;28;20033;-81
2021/04/09 04:26:57;;;;;;;35.88;17.73;;;;;;;0.83;86.69;98550.78;5014716;28;20032;-82
2021/04/09 04:29:23;;;;;;;40.20;17.15;;;;;;;0.75;87.50;98544.69;5014788;28;20040;-82
2021/04/09 04:31:51;;;;;;;51.10;19.98;;;;;;;0.83;86.05;98559.53;5030940;28;20424;-81
2021/04/09 04:34:17;;;;;;;47.70;18.88;;;;;;;0.60;87.57;98552.69;5031190;28;20028;-84
2021/04/09 04:36:42;;;;;;;37.78;15.52;;;;;;;0.63;87.06;98563.19;5031111;28;20025;-80
2021/04/09 04:39:08;;;;;;;45.63;19.83;;;;;;;0.61;87.40;98567.63;5047670;28;20492;-82
2021/04/09 04:41:34;;;;;;;40.10;19.63;;;;;;;0.45;88.80;98565.06;5030811;28;20040;-83
2021/04/09 04:43:59;;;;;;;50.00;20.92;;;;;;;0.51;89.26;98579.94;5047688;28;20065;-81
2021/04/09 04:46:25;;;;;;;51.22;23.15;;;;;;;0.53;89.87;98578.16;5031201;28;20104;-83
2021/04/09 04:48:51;;;;;;;56.67;25.60;;;;;;;0.50;90.89;98586.09;5030546;28;20018;-86
2021/04/09 04:51:18;;;;;;;43.35;20.30;;;;;;;0.73;89.91;98594.75;5048965;28;20017;-82
2021/04/09 04:53:44;;;;;;;31.40;17.42;;;;;;;0.72;88.00;98578.94;5030994;28;20412;-82
2021/04/09 04:56:09;;;;;;;37.67;18.70;;;;;;;0.84;87.03;98589.38;5021869;28;20033;-83
2021/04/09 04:58:35;;;;;;;39.38;19.17;;;;;;;0.99;86.38;98584.00;5014034;28;20397;-82
2021/04/09 05:01:00;;;;;;;36.50;19.05;;;;;;;1.41;83.95;98573.13;5014155;28;20057;-82
2021/04/09 05:03:26;;;;;;;38.10;21.67;;;;;;;2.12;80.23;98598.72;5014979;28;20119;-86
2021/04/09 05:05:51;;;;;;;26.40;15.32;;;;;;;2.89;75.52;98602.09;5013921;28;20026;-82
2021/04/09 05:08:17;;;;;;;38.85;19.00;;;;;;;3.13;72.62;98579.72;5013511;28;20032;-82
2021/04/09 05:11:51;;;;;;;39.13;20.20;;;;;;;3.16;72.38;98590.25;5131006;27;20326;-86
2021/04/09 05:14:16;;;;;;;54.60;25.77;;;;;;;3.57;70.61;98597.50;5094476;28;20498;-82
2021/04/09 05:16:42;;;;;;;56.70;28.13;;;;;;;3.71;69.56;98593.72;5111546;28;20071;-83
2021/04/09 05:19:08;;;;;;;69.55;30.80;;;;;;;3.80;69.97;98588.25;5111076;28;20513;-83
2021/04/09 05:21:33;;;;;;;56.47;28.83;;;;;;;4.22;68.39;98594.47;5109290;27;20033;-88
2021/04/09 05:23:59;;;;;;;65.63;28.90;;;;;;;4.68;66.08;98583.78;5115001;27;20037;-83
2021/04/09 05:26:24;;;;;;;71.18;30.73;;;;;;;5.18;63.85;98598.56;5131799;27;20023;-75
2021/04/09 05:28:50;;;;;;;69.57;29.20;;;;;;;6.24;60.00;98603.81;5109957;27;20109;-76
2021/04/09 05:31:16;;;;;;;70.90;32.92;;;;;;;7.98;53.15;98614.25;5123132;27;20034;-77
2021/04/09 05:33:41;;;;;;;90.10;43.00;;;;;;;9.48;48.54;98631.75;5098559;28;20123;-76
2021/04/09 05:36:07;;;;;;;71.05;38.78;;;;;;;10.40;45.35;98625.19;5100750;27;20030;-80
2021/04/09 05:38:33;;;;;;;63.13;34.58;;;;;;;12.05;41.72;98628.06;5120929;27;20102;-75
2021/04/09 05:40:58;;;;;;;57.75;28.63;;;;;;;12.79;38.66;98624.16;5127945;27;20026;-77
2021/04/09 05:43:24;;;;;;;61.10;22.88;;;;;;;12.87;38.12;98632.66;5124479;27;20015;-76
2021/04/09 05:45:49;;;;;;;36.75;19.63;;;;;;;13.19;37.22;98630.94;5129790;27;20031;-74
2021/04/09 05:48:16;;;;;;;46.50;23.38;;;;;;;13.01;36.60;98621.19;5145670;27;20031;-75
2021/04/09 05:50:42;;;;;;;46.78;18.88;;;;;;;12.94;36.56;98622.47;5102318;27;20033;-74
2021/04/09 05:53:07;;;;;;;30.67;16.92;;;;;;;13.12;35.97;98634.03;5100102;28;20455;-75
2021/04/09 05:55:33;;;;;;;30.63;18.02;;;;;;;13.00;36.59;98640.94;5112662;27;20502;-75
2021/04/09 05:57:58;;;;;;;36.05;18.80;;;;;;;14.60;34.60;98641.56;5118733;27;20030;-76
2021/04/09 06:00:24;;;;;;;41.20;19.13;;;;;;;15.56;32.65;98633.72;5105198;27;20202;-75
2021/04/09 06:02:50;;;;;;;35.90;20.10;;;;;;;16.17;31.93;98631.41;5103004;28;20061;-76
2021/04/09 06:05:16;;;;;;;46.78;22.05;;;;;;;16.85;31.07;98636.66;5120558;27;20059;-74
2021/04/09 06:07:41;;;;;;;50.47;20.88;;;;;;;17.60;29.87;98634.88;5121535;27;20062;-76
2021/04/09 06:10:08;;;;;;;53.40;22.80;;;;;;;17.54;29.56;98635.28;5123258;28;20051;-77
2021/04/09 06:12:33;;;;;;;41.78;24.05;;;;;;;17.22;29.66;98637.63;5102948;27;20027;-77
2021/04/09 06:14:59;;;;;;;57.20;30.42;;;;;;;15.92;31.90;98641.25;5113202;28;20026;-77
2021/04/09 06:17:25;;;;;;;67.00;32.33;;;;;;;16.31;31.59;98638.56;5095480;27;20023;-76
2021/04/09 06:19:50;;;;;;;46.55;21.73;;;;;;;16.56;30.32;98632.41;5102355;27;20118;-76
2021/04/09 06:22:17;;;;;;;49.85;21.33;;;;;;;17.49;29.43;98630.22;5105266;28;20023;-77
2021/04/09 06:24:43;;;;;;;39.72;22.55;;;;;;;18.35;28.05;98634.59;5092747;28;20118;-76
2021/04/09 06:27:09;;;;;;;29.02;17.90;;;;;;;18.33;28.11;98633.00;5105601;27;20023;-75
2021/04/09 06:29:35;;;;;;;38.42;17.00;;;;;;;19.07;27.31;98639.91;5089100;27;20023;-75
2021/04/09 06:32:01;;;;;;;35.70;17.58;;;;;;;19.95;25.93;98629.06;5086080;28;20038;-83
2021/04/09 06:34:26;;;;;;;24.92;14.15;;;;;;;19.70;25.51;98628.47;5089205;27;20031;-84
2021/04/09 06:36:52;;;;;;;22.25;12.68;;;;;;;20.85;24.52;98633.19;5091591;28;20490;-74
2021/04/09 06:39:17;;;;;;;17.55;10.93;;;;;;;21.48;23.09;98617.66;5098148;28;20019;-86
2021/04/09 06:41:43;;;;;;;20.42;12.48;;;;;;;21.14;23.47;98616.19;5097718;27;20034;-85
2021/04/09 06:44:12;;;;;;;23.80;10.60;;;;;;;20.43;23.87;98596.91;5084506;28;20023;-84
2021/04/09 06:46:40;;;;;;;14.15;9.60;;;;;;;20.15;25.02;98626.53;5083075;28;20089;-85
2021/04/09 06:49:06;;;;;;;18.85;9.50;;;;;;;19.29;24.80;98623.63;5078014;28;20454;-83
2021/04/09 06:51:33;;;;;;;17.42;8.77;;;;;;;19.90;24.49;98631.25;5100003;27;20019;-83
2021/04/09 06:54:01;;;;;;;15.60;8.73;;;;;;;18.96;25.15;98640.75;5089747;27;20027;-83
2021/04/09 06:56:28;;;;;;;17.33;7.07;;;;;;;17.97;25.59;98641.16;5084993;27;20517;-83
2021/04/09 06:58:54;;;;;;;16.70;6.00;;;;;;;18.16;26.15;98644.22;5094763;28;20499;-84
2021/04/09 07:01:23;;;;;;;10.07;5.95;;;;;;;18.63;24.44;98638.81;5083148;27;20027;-84
2021/04/09 07:03:48;;;;;;;6.20;3.75;;;;;;;18.35;24.08;98644.56;5086062;27;20502;-85
2021/04/09 07:06:14;;;;;;;20.42;9.43;;;;;;;16.81;27.22;98643.25;5088577;27;20025;-84
2021/04/09 07:08:43;;;;;;;16.45;9.63;;;;;;;14.89;28.85;98639.78;5089878;27;20122;-83
2021/04/09 07:11:09;;;;;;;9.07;4.07;;;;;;;13.07;31.98;98634.28;5092307;27;20084;-82
2021/04/09 07:14:00;;;;;;;10.55;4.93;;;;;;;13.18;31.52;98660.56;5086984;27;20113;-84
2021/04/09 07:16:26;;;;;;;11.93;4.60;;;;;;;13.24;30.50;98663.81;5095880;27;20530;-84
2021/04/09 07:18:59;;;;;;;12.65;5.93;;;;;;;12.69;32.59;98662.31;5082224;27;20043;-83
2021/04/09 07:21:34;;;;;;;19.58;9.98;;;;;;;12.57;34.47;98684.41;5086127;27;20033;-82
2021/04/09 07:24:12;;;;;;;12.43;5.78;;;;;;;12.28;34.04;98694.81;5085683;27;20027;-85
2021/04/09 07:26:42;;;;;;;8.48;5.10;;;;;;;12.89;33.41;98684.47;5105802;27;20115;-83
2021/04/09 07:29:30;;;;;;;19.00;6.10;;;;;;;14.03;32.28;98667.34;5086739;27;20113;-84
2021/04/09 07:32:17;;;;;;;10.07;4.93;;;;;;;15.85;27.87;98678.53;5109137;27;20191;-85
2021/04/09 07:34:51;;;;;;;11.68;5.63;;;;;;;18.38;25.16;98671.44;5093920;27;20050;-84
2021/04/09 07:37:16;;;;;;;14.70;6.28;;;;;;;19.48;24.34;98659.19;5078221;27;20031;-85
2021/04/09 07:39:43;;;;;;;18.30;5.38;;;;;;;20.05;24.00;98660.88;5094815;27;20035;-87
2021/04/09 07:42:10;;;;;;;11.80;7.40;;;;;;;17.32;24.83;98644.09;5077271;28;20040;-85
2021/04/09 07:44:40;;;;;;;8.43;5.60;;;;;;;16.19;25.95;98644.78;5097291;27;20150;-85
2021/04/09 07:47:13;;;;;;;7.93;3.92;;;;;;;15.32;27.53;98638.81;5076347;28;20054;-84
2021/04/09 07:49:54;;;;;;;6.40;3.83;;;;;;;12.76;29.72;98631.50;5081057;28;20020;-86
2021/04/09 07:52:23;;;;;;;7.55;3.85;;;;;;;11.99;31.59;98601.56;5074544;28;20043;-84
2021/04/09 07:54:52;;;;;;;14.23;4.97;;;;;;;11.99;32.84;98640.91;5087743;27;20099;-84
2021/04/09 07:57:53;;;;;;;16.30;9.02;;;;;;;13.41;30.78;98697.81;5081408;28;20024;-84
2021/04/09 08:00:29;;;;;;;12.65;7.97;;;;;;;13.39;30.24;98662.94;5004606;28;20037;-85
2021/04/09 08:02:57;;;;;;;12.82;5.38;;;;;;;12.77;32.67;98684.22;5092149;27;20038;-87
2021/04/09 08:05:28;;;;;;;11.02;4.65;;;;;;;12.28;33.09;98668.00;5093782;27;20506;-83
2021/04/09 08:08:08;;;;;;;11.88;4.53;;;;;;;12.47;32.46;98700.13;5099321;27;20027;-84
2021/04/09 08:10:33;;;;;;;6.88;4.18;;;;;;;12.87;31.92;98689.06;5083582;28;20127;-85
2021/04/09 08:13:01;;;;;;;9.45;3.95;;;;;;;14.22;29.78;98667.16;5084340;28;20566;-84
2021/04/09 08:15:30;;;;;;;9.13;3.60;;;;;;;13.40;29.99;98696.94;5092562;27;20023;-85
2021/04/09 08:18:11;;;;;;;10.23;4.05;;;;;;;13.33;32.24;98687.47;5084451;27;20114;-85
2021/04/09 08:20:42;;;;;;;13.20;3.72;;;;;;;13.94;29.64;98700.19;5078191;28;20028;-82
2021/04/09 08:23:10;;;;;;;10.10;3.45;;;;;;;13.41;31.05;98695.97;5080629;28;20518;-83
2021/04/09 08:25:36;;;;;;;23.02;12.20;;;;;;;12.76;30.65;98695.94;5091828;27;20023;-84
2021/04/09 08:28:08;;;;;;;6.68;3.05;;;;;;;12.17;30.94;98690.94;5089195;27;20026;-84
2021/04/09 08:30:35;;;;;;;6.93;3.00;;;;;;;12.05;30.82;98692.44;5083929;27;20022;-83
2021/04/09 08:33:01;;;;;;;5.82;3.33;;;;;;;11.74;31.12;98682.34;5090918;27;20489;-84
2021/04/09 08:35:27;;;;;;;4.90;3.22;;;;;;;12.29;30.94;98696.56;5092834;27;20027;-83
2021/04/09 08:37:54;;;;;;;7.32;2.97;;;;;;;11.37;32.10;98682.31;5106842;27;20024;-85
2021/04/09 08:40:20;;;;;;;5.10;2.90;;;;;;;10.86;32.51;98693.59;5095241;27;20110;-84
2021/04/09 08:42:46;;;;;;;7.70;3.50;;;;;;;11.22;32.71;98716.03;5102814;27;20042;-83
2021/04/09 08:45:14;;;;;;;23.38;11.30;;;;;;;13.84;30.10;98693.59;5096471;27;20440;-84
2021/04/09 08:47:42;;;;;;;8.00;2.90;;;;;;;16.47;27.65;98687.88;5073771;28;20031;-83
2021/04/09 08:50:15;;;;;;;6.65;3.40;;;;;;;18.37;25.00;98691.38;5101613;27;20060;-83
2021/04/09 08:52:44;;;;;;;11.80;2.72;;;;;;;17.22;24.79;98662.84;5091081;27;20070;-84
2021/04/09 08:55:12;;;;;;;7.82;2.65;;;;;;;16.40;24.99;98674.88;5078667;27;20130;-81
2021/04/09 08:57:42;;;;;;;6.20;3.25;;;;;;;14.89;26.27;98685.59;5088555;28;20062;-81
2021/04/09 09:00:19;;;;;;;10.23;3.17;;;;;;;14.22;27.75;98672.53;5084002;28;20116;-83
2021/04/09 09:02:54;;;;;;;7.35;2.92;;;;;;;14.70;27.52;98682.28;5092292;28;20027;-84
2021/04/09 09:05:21;;;;;;;7.95;4.70;;;;;;;13.82;28.95;98668.59;5073215;27;20026;-83
2021/04/09 09:07:49;;;;;;;10.68;3.85;;;;;;;13.18;30.63;98687.44;5122517;27;20059;-83
2021/04/09 09:10:30;;;;;;;10.23;3.25;;;;;;;14.98;27.37;98696.66;5130596;28;20479;-83
2021/04/09 09:13:17;;;;;;;8.77;5.15;;;;;;;16.39;25.26;98678.56;5103713;28;20443;-84
2021/04/09 09:15:42;;;;;;;9.75;3.95;;;;;;;17.82;24.15;98671.09;5112603;28;20074;-83
2021/04/09 09:18:23;;;;;;;9.95;3.00;;;;;;;18.15;24.82;98675.84;5109322;28;20059;-81
2021/04/09 09:21:10;;;;;;;10.38;3.17;;;;;;;19.95;22.25;98669.78;5118808;28;20027;-82
2021/04/09 09:23:50;;;;;;;28.63;14.05;;;;;;;19.94;21.72;98649.03;5104203;28;20038;-82
2021/04/09 09:26:28;;;;;;;4.97;2.97;;;;;;;19.35;21.00;98634.00;5096786;28;20123;-81
2021/04/09 09:29:23;;;;;;;5.20;2.65;;;;;;;20.10;20.87;98642.34;5112510;28;20449;-83
2021/04/09 09:31:48;;;;;;;6.00;3.47;;;;;;;21.04;19.86;98646.88;5013418;28;20481;-85
2021/04/09 09:34:17;;;;;;;9.82;4.13;;;;;;;22.26;17.95;98628.69;5046674;28;20111;-85
2021/04/09 09:37:19;;;;;;;9.40;4.90;;;;;;;22.29;20.72;98636.56;5038598;28;20040;-85
2021/04/09 09:39:58;;;;;;;9.98;4.05;;;;;;;22.09;18.23;98611.13;5043385;28;20044;-85
2021/04/09 09:42:29;;;;;;;6.45;3.20;;;;;;;21.63;18.95;98625.31;5060428;28;20499;-85
2021/04/09 09:45:07;;;;;;;10.38;3.03;;;;;;;20.87;20.73;98623.03;5056243;28;20037;-85
2021/04/09 09:47:41;;;;;;;9.20;2.88;;;;;;;21.93;19.33;98615.41;5056288;28;20025;-83
2021/04/09 09:50:33;;;;;;;9.95;4.00;;;;;;;21.27;19.96;98619.56;5050385;28;20463;-83
2021/04/09 09:53:07;;;;;;;7.05;3.47;;;;;;;19.11;22.38;98614.25;5064887;28;20048;-85
2021/04/09 09:55:45;;;;;;;5.55;3.30;;;;;;;19.95;21.94;98626.34;5061457;28;20032;-84
2021/04/09 10:02:45;;;;;;;6.18;3.55;;;;;;;17.88;22.73;98621.91;5035140;28;20075;-86
2021/04/09 10:12:23;;;;;;;8.30;2.67;;;;;;;20.57;20.24;98582.16;4976512;28;20042;-84
2021/04/09 10:14:50;;;;;;;7.43;4.10;;;;;;;20.75;20.77;98593.28;4980822;28;20722;-82
2021/04/09 10:17:15;;;;;;;6.63;3.90;;;;;;;21.57;18.63;98590.47;4997475;28;20035;-84
2021/04/09 10:20:05;;;;;;;8.45;4.00;;;;;;;21.68;20.06;98592.22;5029185;28;20479;-84
2021/04/09 10:22:31;;;;;;;5.55;3.13;;;;;;;22.32;19.06;98587.22;5033397;28;20093;-83
2021/04/09 10:24:56;;;;;;;4.82;3.05;;;;;;;22.14;19.04;98587.06;5051712;28;20491;-83
2021/04/09 10:27:22;;;;;;;4.72;3.03;;;;;;;20.48;19.97;98575.66;5048741;28;20037;-75
2021/04/09 10:29:48;;;;;;;12.88;5.32;;;;;;;21.64;20.69;98588.06;5052813;28;20734;-75
2021/04/09 10:32:20;;;;;;;5.03;2.58;;;;;;;21.17;18.80;98573.25;5062067;28;20032;-75
2021/04/09 10:34:47;;;;;;;4.80;2.95;;;;;;;20.39;19.24;98570.13;5039460;28;20039;-75
2021/04/09 10:37:24;;;;;;;13.98;3.55;;;;;;;21.31;19.78;98570.16;5026010;28;20035;-75
2021/04/09 10:39:51;;;;;;;8.90;3.53;;;;;;;22.44;18.94;98582.47;5047561;28;20036;-75
2021/04/09 10:42:17;;;;;;;11.07;3.70;;;;;;;22.65;18.45;98580.47;5048622;28;20017;-75
2021/04/09 10:44:43;;;;;;;3.13;2.35;;;;;;;20.05;18.96;98560.38;5062271;28;20033;-75
2021/04/09 10:47:08;;;;;;;6.53;2.95;;;;;;;18.17;21.89;98562.88;5060998;28;20063;-75
2021/04/09 10:49:39;;;;;;;4.38;2.45;;;;;;;19.05;21.44;98560.47;5046433;28;20115;-75
2021/04/09 10:52:07;;;;;;;4.95;2.90;;;;;;;20.44;20.65;98576.03;5044620;28;20037;-75
2021/04/09 10:54:35;;;;;;;11.00;3.80;;;;;;;21.43;19.69;98565.47;5033730;28;20028;-75
2021/04/09 10:57:03;;;;;;;9.85;6.22;;;;;;;21.27;21.27;98563.25;5024474;28;20504;-75
2021/04/09 10:59:50;;;;;;;7.95;4.07;;;;;;;23.78;17.07;98560.28;5026912;28;20102;-75
2021/04/09 11:02:20;;;;;;;9.23;5.78;;;;;;;23.35;17.46;98549.13;5059991;28;20043;-75
2021/04/09 11:04:51;;;;;;;7.57;4.60;;;;;;;22.20;18.41;98543.88;5042953;28;20063;-76
2021/04/09 11:07:17;;;;;;;50.50;34.80;;;;;;;23.09;17.13;98552.53;5047036;28;20028;-77
2021/04/09 11:09:53;;;;;;;8.68;4.95;;;;;;;24.09;17.32;98544.38;5030743;28;20135;-76
2021/04/09 11:12:29;;;;;;;4.95;3.28;;;;;;;24.13;15.67;98530.28;5022853;28;20029;-76
2021/04/09 11:15:08;;;;;;;5.00;3.25;;;;;;;23.10;16.35;98537.00;5040035;28;20036;-76
2021/04/09 11:17:35;;;;;;;14.93;6.57;;;;;;;23.18;16.68;98532.53;5042728;28;20033;-84
2021/04/09 11:20:19;;;;;;;10.13;4.13;;;;;;;23.05;17.12;98515.59;5029229;28;20036;-84
2021/04/09 11:22:45;;;;;;;8.98;4.20;;;;;;;23.59;18.25;98533.94;5047701;28;20020;-84
2021/04/09 11:25:11;;;;;;;4.50;3.22;;;;;;;24.11;16.04;98531.47;5049684;28;20029;-84
2021/04/09 11:27:39;;;;;;;13.50;10.05;;;;;;;24.38;17.75;98519.59;5045425;28;20033;-85
2021/04/09 11:30:07;;;;;;;8.82;3.60;;;;;;;26.14;16.87;98529.84;5047508;28;20025;-85
2021/04/09 11:32:38;;;;;;;25.38;16.15;;;;;;;25.41;15.00;98512.25;5046839;28;20029;-84
2021/04/09 11:35:08;;;;;;;5.25;3.67;;;;;;;25.51;15.33;98514.91;5030343;28;20036;-85
2021/04/09 11:37:45;;;;;;;10.38;5.15;;;;;;;25.44;16.13;98511.91;5020592;28;20588;-84
2021/04/09 11:40:12;;;;;;;4.70;2.88;;;;;;;26.31;14.06;98504.16;5034333;28;20119;-84
2021/04/09 11:42:38;;;;;;;18.83;14.45;;;;;;;26.01;14.19;98488.31;5023425;28;20044;-85
2021/04/09 11:45:06;;;;;;;6.72;2.95;;;;;;;25.19;16.87;98500.03;5075729;28;20408;-84